ADDS METAR Data INFO
IDs: Format: Raw Decoded Include TAF

Data at: 0342 UTC 20 Feb 2018

KI69 200335Z AUTO 19010G18KT 170V230 10SM CLR 18/12 A3011 RMK AO2 T01840122
KI69 200315Z AUTO 18008G14KT 10SM CLR 19/12 A3011 RMK AO2 T01850121
KI69 200255Z AUTO 18008KT 10SM CLR 19/12 A3011 RMK AO2 T01880121
KI69 200235Z AUTO 19007G14KT 10SM CLR 19/13 A3011 RMK AO2 T01910125
KI69 200215Z AUTO 19007KT 10SM CLR 19/13 A3011 RMK AO2 T01920126
KI69 200155Z AUTO 19008G14KT 10SM CLR 20/13 A3011 RMK AO2 T01950128
KI69 200135Z AUTO 20009G17KT 10SM CLR 20/13 A3011 RMK AO2 T01960130
KI69 200115Z AUTO 20011G16KT 10SM CLR 20/13 A3010 RMK AO2 T01970130
KI69 200055Z AUTO 19009G18KT 10SM CLR 20/13 A3010 RMK AO2 T02000132
KI69 200035Z AUTO 20010G15KT 10SM CLR 20/13 A3010 RMK AO2 T02020132
KI69 200015Z AUTO 19009G14KT 10SM SCT070 21/13 A3009 RMK AO2 T02060133
KI69 192355Z AUTO 19010KT 10SM OVC080 21/13 A3009 RMK AO2 T02100132 10226 20210
KI69 192335Z AUTO 20009G18KT 10SM SCT048 OVC080 22/13 A3009 RMK AO2 T02150133
KI69 192315Z AUTO 20011G15KT 10SM OVC070 22/13 A3008 RMK AO2 T02160133
KI69 192255Z AUTO 20006G14KT 10SM SCT050 OVC070 22/13 A3008 RMK AO2 T02200132
KI69 192235Z AUTO 20007G16KT 10SM BKN049 BKN060 OVC070 22/13 A3006 RMK AO2 T02210132
KI69 192215Z AUTO 21008KT 190V250 10SM SCT049 BKN055 OVC070 22/14 A3006 RMK AO2 T02220136
KI69 192155Z AUTO 22010G16KT 10SM SCT044 SCT055 BKN075 22/14 A3006 RMK AO2 T02240137
KI69 192135Z AUTO 20009G16KT 10SM SCT040 BKN047 BKN055 23/14 A3006 RMK AO2 T02250140
KI69 192115Z AUTO 21008G16KT 10SM BKN042 BKN047 OVC055 22/14 A3006 RMK AO2 T02220140
KI69 192055Z AUTO 21009G20KT 160V230 10SM BKN047 BKN055 OVC070 22/14 A3006 RMK AO2 T02230138
KI69 192035Z AUTO 23014G23KT 10SM SCT043 BKN050 OVC070 23/14 A3005 RMK AO2 T02250138
KI69 192015Z AUTO 21013G19KT 10SM BKN041 BKN047 OVC055 22/14 A3005 RMK AO2 T02210138
KI69 191956Z AUTO 22018G22KT 10SM SCT039 BKN049 OVC055 22/14 A3005 RMK AO2 T02220138
KI69 191935Z AUTO 22014G20KT 10SM BKN039 BKN047 OVC060 22/14 A3005 RMK AO2 T02210137
KI69 191915Z AUTO 22014G29KT 10SM SCT039 BKN045 BKN050 22/14 A3006 RMK AO2 T02220137
KI69 191855Z AUTO 22013G22KT 10SM SCT039 OVC047 22/14 A3006 RMK AO2 T02180138
KI69 191835Z AUTO 23016G24KT 10SM BKN039 OVC045 22/14 A3007 RMK AO2 T02170136
KI69 191815Z AUTO 22014G28KT 10SM BKN037 OVC047 22/14 A3007 RMK AO2 T02170141
KI69 191755Z AUTO 21008G16KT 160V230 10SM BKN033 BKN039 OVC049 21/15 A3007 RMK AO2 T02120146 10212 20120
KI69 191735Z AUTO 20008KT 170V230 10SM BKN031 OVC037 21/15 A3008 RMK AO2 T02080145
KI69 191715Z AUTO 20007KT 10SM BKN029 OVC035 20/14 A3009 RMK AO2 T01980142
KI69 191655Z AUTO 20007KT 10SM OVC027 19/14 A3009 RMK AO2 T01880140
KI69 191635Z AUTO 19006KT 10SM OVC025 19/14 A3009 RMK AO2 T01880140
KI69 191615Z AUTO 20009G17KT 10SM OVC023 18/14 A3009 RMK AO2 T01840139
KI69 191555Z AUTO 21011G19KT 10SM OVC021 18/14 A3009 RMK AO2 T01800137
KI69 191535Z AUTO 21008G18KT 10SM OVC017 17/13 A3009 RMK AO2 T01710133
KI69 191515Z AUTO 21009G16KT 10SM OVC017 17/13 A3009 RMK AO2 T01660133
KI69 191455Z AUTO 21009G17KT 10SM OVC015 16/13 A3009 RMK AO2 T01610131
KI69 191435Z AUTO 21011G21KT 10SM OVC013 15/13 A3009 RMK AO2 T01500127
KI69 191415Z AUTO 22009G17KT 10SM OVC013 15/13 A3010 RMK AO2 T01500125
KI69 191355Z AUTO 21009G16KT 10SM OVC013 15/12 A3009 RMK AO2 T01450122
KI69 191335Z AUTO 20009G15KT 10SM OVC015 14/12 A3009 RMK AO2 T01390117
KI69 191315Z AUTO 20008KT 10SM OVC017 14/12 A3009 RMK AO2 T01350115
KI69 191255Z AUTO 21008KT 10SM OVC015 13/11 A3009 RMK AO2 T01300110
KI69 191235Z AUTO 20008G14KT 170V230 10SM OVC013 13/11 A3008 RMK AO2 T01270107
KI69 191215Z AUTO 20011G15KT 10SM OVC015 13/10 A3008 RMK AO2 T01250104
KI69 191155Z AUTO 20008G14KT 10SM OVC015 12/10 A3008 RMK AO2 T01200098 10120 20065
KI69 191135Z AUTO 21009KT 10SM OVC015 12/09 A3008 RMK AO2 T01150093
KI69 191115Z AUTO 19007KT 10SM -RA OVC013 11/09 A3008 RMK AO2 T01100090
KI69 191055Z AUTO 20008G14KT 10SM OVC013 11/09 A3009 RMK AO2 T01070087
KI69 191035Z AUTO 19009G16KT 10SM OVC015 11/08 A3009 RMK AO2 T01070081
KI69 191015Z AUTO 20011G15KT 10SM -RA OVC015 11/08 A3009 RMK AO2 T01070076
KI69 190955Z AUTO 20007KT 10SM OVC015 11/06 A3009 RMK AO2 T01120063
KI69 190935Z AUTO 20007KT 10SM OVC017 11/06 A3009 RMK AO2 T01100055
KI69 190915Z AUTO 21006KT 10SM OVC017 11/05 A3009 RMK AO2 T01080051
KI69 190855Z AUTO 20008KT 10SM OVC017 11/05 A3009 RMK AO2 T01060045
KI69 190835Z AUTO 21009G15KT 170V230 10SM OVC019 10/04 A3009 RMK AO2 T01020036
KI69 190815Z AUTO 19007KT 10SM OVC021 10/03 A3009 RMK AO2 T01020031
KI69 190755Z AUTO 21009G15KT 10SM BKN023 OVC030 10/03 A3009 RMK AO2 T00990025
KI69 190735Z AUTO 19006KT 10SM BKN028 09/01 A3009 RMK AO2 T00850012
KI69 190715Z AUTO 17006KT 10SM CLR 07/01 A3008 RMK AO2 T00730006
KI69 190655Z AUTO 17006KT 10SM CLR 07/00 A3009 RMK AO2 T00690002
KI69 190635Z AUTO 17006KT 10SM CLR 07/00 A3009 RMK AO2 T00670001
KI69 190615Z AUTO 16006KT 10SM CLR 07/00 A3009 RMK AO2 T00680000
KI69 190555Z AUTO 15007KT 10SM CLR 07/00 A3009 RMK AO2 T00650000 10065 20044 400830000
KI69 190535Z AUTO 15005KT 10SM SCT085 06/00 A3011 RMK AO2 T00570001
KI69 190515Z AUTO 14005KT 10SM SCT075 OVC085 06/00 A3012 RMK AO2 T00550001
KI69 190455Z AUTO 13005KT 10SM BKN075 06/00 A3013 RMK AO2 T00560001
KI69 190435Z AUTO 14004KT 10SM SCT075 05/00 A3014 RMK AO2 T00520000
KI69 190415Z AUTO 14005KT 10SM CLR 05/00 A3014 RMK AO2 T00510000
KI69 190355Z AUTO 12004KT 10SM CLR 05/00 A3013 RMK AO2 T00500000
KI69 190335Z AUTO 13006KT 10SM CLR 05/00 A3014 RMK AO2 T00500000
KI69 190315Z AUTO 13005KT 10SM CLR 05/00 A3014 RMK AO2 T00480000
KI69 190255Z AUTO 13004KT 10SM CLR 05/00 A3017 RMK AO2 T00470000
KI69 190235Z AUTO 12005KT 10SM CLR 05/00 A3017 RMK AO2 T00450000
KI69 190215Z AUTO 11005KT 10SM CLR 05/00 A3018 RMK AO2 T00450000
KI69 190155Z AUTO 11004KT 10SM CLR 05/00 A3019 RMK AO2 T00450000
KI69 190135Z AUTO 12005KT 10SM CLR 05/00 A3019 RMK AO2 T00490000
KI69 190115Z AUTO 11004KT 10SM CLR 05/00 A3019 RMK AO2 T00510000
KI69 190056Z AUTO 11004KT 10SM CLR 05/00 A3020 RMK AO2 T00520000
KI69 190035Z AUTO 11003KT 10SM CLR 06/00 A3021 RMK AO2 T00610000
KI69 190015Z AUTO 12003KT 10SM CLR 06/00 A3021 RMK AO2 T00610000
KI69 182355Z AUTO 11003KT 10SM CLR 07/00 A3021 RMK AO2 T00650000 10083 20056
KI69 182335Z AUTO 12004KT 10SM CLR 07/00 A3021 RMK AO2 T00670000
KI69 182315Z AUTO 13004KT 10SM CLR 07/00 A3022 RMK AO2 T00710000
KI69 182255Z AUTO 13004KT 10SM CLR 08/00 A3022 RMK AO2 T00750000
KI69 182235Z AUTO 13004KT 10SM CLR 08/00 A3023 RMK AO2 T00760001
KI69 182215Z AUTO 14005KT 10SM CLR 08/00 A3022 RMK AO2 T00780001
KI69 182155Z AUTO 12006KT 10SM CLR 08/00 A3023 RMK AO2 T00780000
KI69 182135Z AUTO 12007KT 10SM CLR 08/00 A3024 RMK AO2 T00800003
KI69 182115Z AUTO 13006KT 10SM CLR 08/00 A3024 RMK AO2 T00830003
KI69 182055Z AUTO 11011G14KT 10SM CLR 08/00 A3025 RMK AO2 T00820003
KI69 182035Z AUTO 12007KT 10SM CLR 08/00 A3026 RMK AO2 T00800003
KI69 182015Z AUTO 12008KT 10SM CLR 08/00 A3027 RMK AO2 T00770000
KI69 181955Z AUTO 11008KT 10SM CLR 08/00 A3028 RMK AO2 T00760001
KI69 181935Z AUTO 11006G14KT 10SM CLR 07/00 A3029 RMK AO2 T00741001
KI69 181915Z AUTO 15007KT 10SM CLR 07/00 A3030 RMK AO2 T00731002
KI69 181855Z AUTO 15005KT 10SM CLR 07/00 A3032 RMK AO2 T00701003
KI69 181835Z AUTO 13006KT 10SM CLR 07/00 A3032 RMK AO2 T00651002
KI69 181815Z AUTO 16004KT 10SM CLR 06/00 A3033 RMK AO2 T00591005
KI69 181755Z AUTO 12006KT 10SM CLR 06/00 A3034 RMK AO2 T00571003 10057 20000
KI69 181735Z AUTO 09006KT 10SM CLR 05/M01 A3035 RMK AO2 T00521006
KI69 181715Z AUTO 08003KT 10SM CLR 05/M01 A3037 RMK AO2 T00481010
KI69 181655Z AUTO 15006KT 10SM CLR 05/00 A3037 RMK AO2 T00471002
KI69 181635Z AUTO 14006KT 10SM SCT021 04/M01 A3038 RMK AO2 T00421007
KI69 181616Z AUTO 12005KT 10SM CLR 03/M02 A3039 RMK AO2 T00311020
KI69 181555Z AUTO 17003KT 10SM SCT021 03/M01 A3039 RMK AO2 T00341014